createdAt,value
2019-04-25T00:01:17.450Z,85.88
2019-04-25T00:03:46.816Z,85.99
2019-04-25T00:06:16.036Z,85.92
2019-04-25T00:08:45.242Z,85.85
2019-04-25T00:11:14.516Z,86.52
2019-04-25T00:13:44.428Z,86.50
2019-04-25T00:16:14.775Z,86.07
2019-04-25T00:18:44.267Z,86.36
2019-04-25T00:21:21.952Z,87.14
2019-04-25T00:23:55.826Z,87.10
2019-04-25T00:26:46.789Z,87.20
2019-04-25T00:29:16.172Z,88.57
2019-04-25T00:31:45.820Z,89.38
2019-04-25T00:34:14.827Z,89.55
2019-04-25T00:36:45.565Z,90.04
2019-04-25T00:39:14.741Z,89.82
2019-04-25T00:41:45.504Z,89.91
2019-04-25T00:44:14.790Z,89.96
2019-04-25T00:46:47.811Z,89.86
2019-04-25T00:49:14.579Z,89.42
2019-04-25T00:51:44.509Z,88.55
2019-04-25T00:54:13.893Z,88.90
2019-04-25T00:56:45.801Z,88.99
2019-04-25T00:59:19.657Z,88.25
2019-04-25T01:01:56.656Z,87.72
2019-04-25T01:04:26.539Z,87.80
2019-04-25T01:06:55.582Z,88.19
2019-04-25T01:09:26.082Z,88.15
2019-04-25T01:11:55.203Z,87.93
2019-04-25T01:14:24.219Z,87.86
2019-04-25T01:16:54.903Z,87.77
2019-04-25T01:19:24.043Z,88.17
2019-04-25T01:21:54.808Z,88.04
2019-04-25T01:24:26.765Z,88.03
2019-04-25T01:26:55.916Z,88.31
2019-04-25T01:29:25.061Z,88.14
2019-04-25T01:31:55.276Z,88.57
2019-04-25T01:34:35.220Z,87.96
2019-04-25T01:37:17.401Z,87.68
2019-04-25T01:40:04.929Z,88.15
2019-04-25T01:42:46.247Z,87.71
2019-04-25T01:45:15.446Z,88.21
2019-04-25T01:47:45.542Z,88.59
2019-04-25T01:50:14.664Z,89.15
2019-04-25T01:52:43.656Z,89.02
2019-04-25T01:55:13.761Z,88.75
2019-04-25T01:57:45.079Z,88.40
2019-04-25T02:00:16.317Z,88.39
2019-04-25T02:02:45.712Z,88.73
2019-04-25T02:05:14.753Z,88.23
2019-04-25T02:07:44.424Z,87.89
2019-04-25T02:10:13.938Z,88.50
2019-04-25T02:12:48.169Z,88.88
2019-04-25T02:15:19.642Z,89.02
2019-04-25T02:17:48.659Z,89.04
2019-04-25T02:20:17.776Z,88.87
2019-04-25T02:22:46.773Z,88.17
2019-04-25T02:25:15.783Z,88.20
2019-04-25T02:27:45.171Z,88.00
2019-04-25T02:30:15.718Z,88.31
2019-04-25T02:32:45.205Z,88.38
2019-04-25T02:35:14.830Z,88.33
2019-04-25T02:37:45.122Z,88.82
2019-04-25T02:40:14.606Z,88.78
2019-04-25T02:42:44.342Z,88.75
2019-04-25T02:45:30.991Z,88.71
2019-04-25T02:48:14.200Z,88.50
2019-04-25T02:50:56.880Z,87.92
2019-04-25T02:53:34.483Z,87.42
2019-04-25T02:56:12.355Z,86.89
2019-04-25T02:58:35.571Z,86.62
2019-04-25T03:01:16.215Z,86.11
2019-04-25T03:03:36.730Z,86.84
2019-04-25T03:06:09.359Z,87.56
2019-04-25T03:08:37.893Z,87.76
2019-04-25T03:11:09.141Z,86.91
2019-04-25T03:13:39.177Z,86.80
2019-04-25T03:16:10.836Z,85.88
2019-04-25T03:18:47.641Z,85.92
2019-04-25T03:21:24.968Z,85.64
2019-04-25T03:23:55.002Z,86.35
2019-04-25T03:26:24.051Z,87.20
2019-04-25T03:28:53.732Z,87.25
2019-04-25T03:31:26.727Z,86.63
2019-04-25T03:33:55.800Z,86.37
2019-04-25T03:36:24.304Z,86.74
2019-04-25T03:38:54.163Z,87.15
2019-04-25T03:41:24.523Z,87.19
2019-04-25T03:43:54.166Z,85.93
2019-04-25T03:46:23.444Z,85.76
2019-04-25T03:48:53.995Z,85.17
2019-04-25T03:51:23.982Z,85.45
2019-04-25T03:53:53.621Z,84.80
2019-04-25T03:56:22.872Z,84.08
2019-04-25T03:58:52.175Z,83.81
2019-04-25T04:01:21.567Z,84.00
2019-04-25T04:03:50.584Z,82.25
2019-04-25T04:06:19.628Z,81.83
2019-04-25T04:08:48.975Z,80.81
2019-04-25T04:11:18.355Z,80.69
2019-04-25T04:13:47.371Z,80.69
2019-04-25T04:16:19.637Z,79.83
2019-04-25T04:18:50.385Z,79.40
2019-04-25T04:21:44.661Z,80.02
2019-04-25T04:24:17.851Z,77.58
2019-04-25T04:27:09.027Z,78.47
2019-04-25T04:29:38.510Z,78.55
2019-04-25T04:32:08.574Z,78.56
2019-04-25T04:34:37.731Z,78.34
2019-04-25T04:37:07.560Z,79.81
2019-04-25T04:39:36.735Z,79.69
2019-04-25T04:42:05.738Z,79.86
2019-04-25T04:44:35.095Z,79.41
2019-04-25T04:47:04.511Z,79.25
2019-04-25T04:49:34.229Z,79.21
2019-04-25T04:52:04.542Z,80.08
2019-04-25T04:54:34.619Z,79.93
2019-04-25T04:57:18.154Z,80.16
2019-04-25T04:59:36.682Z,81.54
2019-04-25T05:02:27.476Z,81.03
2019-04-25T05:05:14.802Z,81.28
2019-04-25T05:07:54.245Z,81.65
2019-04-25T05:10:23.729Z,82.72
2019-04-25T05:12:53.829Z,83.24
2019-04-25T05:15:24.588Z,82.90
2019-04-25T05:17:54.266Z,85.10
2019-04-25T05:20:24.188Z,85.84
2019-04-25T05:22:54.971Z,86.12
2019-04-25T05:25:24.802Z,86.22
2019-04-25T05:28:00.685Z,86.82
2019-04-25T05:30:31.007Z,86.81
2019-04-25T05:33:00.447Z,87.17
2019-04-25T05:35:29.440Z,86.56
2019-04-25T05:37:58.541Z,86.65
2019-04-25T05:40:27.539Z,86.83
2019-04-25T05:43:09.572Z,86.38
2019-04-25T05:45:38.591Z,87.06
2019-04-25T05:48:07.691Z,87.32
2019-04-25T05:50:36.986Z,87.30
2019-04-25T05:53:06.027Z,87.84
2019-04-25T05:55:35.407Z,88.16
2019-04-25T05:58:04.811Z,88.06
2019-04-25T06:00:34.305Z,87.88
2019-04-25T06:03:03.887Z,87.45
2019-04-25T06:05:33.518Z,87.13
2019-04-25T06:08:04.299Z,86.08
2019-04-25T06:10:53.830Z,86.38
2019-04-25T06:13:36.973Z,86.76
2019-04-25T06:16:18.561Z,86.25
2019-04-25T06:19:13.631Z,85.91
2019-04-25T06:21:34.539Z,86.40
2019-04-25T06:24:25.968Z,86.27
2019-04-25T06:27:20.543Z,85.61
2019-04-25T06:29:59.015Z,85.43
2019-04-25T06:32:24.993Z,87.27
2019-04-25T06:34:54.773Z,85.64
2019-04-25T06:37:24.942Z,86.37
2019-04-25T06:39:54.571Z,86.80
2019-04-25T06:42:24.824Z,86.11
2019-04-25T06:45:06.607Z,86.17
2019-04-25T06:47:44.244Z,86.12
2019-04-25T06:50:15.708Z,87.03
2019-04-25T06:52:44.717Z,86.98
2019-04-25T06:55:14.123Z,87.29
2019-04-25T06:57:44.164Z,86.96
2019-04-25T07:00:15.799Z,86.30
2019-04-25T07:02:45.175Z,86.45
2019-04-25T07:05:25.855Z,86.15
2019-04-25T07:07:45.566Z,86.33
2019-04-25T07:10:15.459Z,85.80
2019-04-25T07:12:44.494Z,86.19
2019-04-25T07:15:13.882Z,85.01
2019-04-25T07:17:43.595Z,85.40
2019-04-25T07:20:14.043Z,84.65
2019-04-25T07:22:43.792Z,83.86
2019-04-25T07:25:16.039Z,84.25
2019-04-25T07:28:23.829Z,82.52
2019-04-25T07:31:13.731Z,82.67
2019-04-25T07:34:04.653Z,82.39
2019-04-25T07:36:35.103Z,82.43
2019-04-25T07:39:10.401Z,82.61
2019-04-25T07:41:38.701Z,82.01
2019-04-25T07:44:07.720Z,81.91
2019-04-25T07:46:39.521Z,81.94
2019-04-25T07:49:08.148Z,79.87
2019-04-25T07:51:37.145Z,79.81
2019-04-25T07:54:07.551Z,79.42
2019-04-25T07:56:36.557Z,79.70
2019-04-25T07:59:07.098Z,79.70
2019-04-25T08:01:37.905Z,78.34
2019-04-25T08:04:07.309Z,78.87
2019-04-25T08:06:36.325Z,79.50
2019-04-25T08:09:08.312Z,77.38
2019-04-25T08:11:38.213Z,77.38
2019-04-25T08:14:18.441Z,76.45
2019-04-25T08:16:49.981Z,75.70
2019-04-25T08:19:18.986Z,75.70
2019-04-25T08:21:48.852Z,76.77
2019-04-25T08:24:17.880Z,76.77
2019-04-25T08:26:46.879Z,75.76
2019-04-25T08:29:15.887Z,76.52
2019-04-25T08:31:45.404Z,75.22
2019-04-25T08:34:15.090Z,74.95
2019-04-25T08:36:45.732Z,75.40
2019-04-25T08:39:15.179Z,76.02
2019-04-25T08:41:45.652Z,73.59
2019-04-25T08:44:15.062Z,74.19
2019-04-25T08:46:48.421Z,73.57
2019-04-25T08:49:36.193Z,73.62
2019-04-25T08:52:05.469Z,73.56
2019-04-25T08:54:57.654Z,73.16
2019-04-25T08:57:45.724Z,71.55
2019-04-25T09:00:35.710Z,71.68
2019-04-25T09:03:07.807Z,71.22
2019-04-25T09:05:40.604Z,71.33
2019-04-25T09:08:09.574Z,70.56
2019-04-25T09:10:40.075Z,71.52
2019-04-25T09:13:09.800Z,71.68
2019-04-25T09:15:39.486Z,70.73
2019-04-25T09:18:08.877Z,68.61
2019-04-25T09:20:39.611Z,70.20
2019-04-25T09:23:08.987Z,69.08
2019-04-25T09:25:38.653Z,70.45
2019-04-25T09:28:07.666Z,70.30
2019-04-25T09:30:37.110Z,70.47
2019-04-25T09:33:06.528Z,69.12
2019-04-25T09:35:36.226Z,69.91
2019-04-25T09:38:05.659Z,69.70
2019-04-25T09:40:35.985Z,71.45
2019-04-25T09:43:05.091Z,69.91
2019-04-25T09:45:46.147Z,69.44
2019-04-25T09:48:35.399Z,67.78
2019-04-25T09:51:20.629Z,65.63
2019-04-25T09:53:54.291Z,66.43
2019-04-25T09:56:28.823Z,65.32
2019-04-25T09:59:09.994Z,65.74
2019-04-25T10:01:40.293Z,67.74
2019-04-25T10:04:09.996Z,67.33
2019-04-25T10:06:38.994Z,67.61
2019-04-25T10:09:09.194Z,68.38
2019-04-25T10:11:38.407Z,66.85
2019-04-25T10:14:28.363Z,67.54
2019-04-25T10:16:57.699Z,67.08
2019-04-25T10:19:26.727Z,67.54
2019-04-25T10:21:55.853Z,64.86
2019-04-25T10:24:24.852Z,65.64
2019-04-25T10:26:54.789Z,65.73
2019-04-25T10:29:24.251Z,66.74
2019-04-25T10:31:55.465Z,67.75
2019-04-25T10:34:24.266Z,67.98
2019-04-25T10:36:53.949Z,67.80
2019-04-25T10:39:23.223Z,67.24
2019-04-25T10:41:54.050Z,68.63
2019-04-25T10:44:24.547Z,69.52
2019-04-25T10:46:54.624Z,69.14
2019-04-25T10:49:24.057Z,66.64
2019-04-25T10:51:54.166Z,66.88
2019-04-25T10:54:23.765Z,67.84
2019-04-25T10:56:52.972Z,67.18
2019-04-25T10:59:23.577Z,66.57
2019-04-25T11:01:53.898Z,67.94
2019-04-25T11:04:29.601Z,65.66
2019-04-25T11:06:58.603Z,65.94
2019-04-25T11:09:27.711Z,67.02
2019-04-25T11:11:56.758Z,66.55
2019-04-25T11:14:26.386Z,64.62
2019-04-25T11:16:56.458Z,64.90
2019-04-25T11:19:25.583Z,64.73
2019-04-25T11:21:54.578Z,65.81
2019-04-25T11:24:23.832Z,65.17
2019-04-25T11:26:55.100Z,64.44
2019-04-25T11:29:24.455Z,64.22
2019-04-25T11:31:53.567Z,63.75
2019-04-25T11:34:23.131Z,63.63
2019-04-25T11:36:52.165Z,63.28
2019-04-25T11:39:39.029Z,63.42
2019-04-25T11:42:16.018Z,63.62
2019-04-25T11:44:45.726Z,62.96
2019-04-25T11:47:15.532Z,63.95
2019-04-25T11:49:46.350Z,65.28
2019-04-25T11:52:26.856Z,66.03
2019-04-25T11:54:46.858Z,66.20
2019-04-25T11:57:16.614Z,65.81
2019-04-25T11:59:48.883Z,67.13
2019-04-25T12:02:16.941Z,69.21
2019-04-25T12:04:46.858Z,68.54
2019-04-25T12:07:17.189Z,72.32
2019-04-25T12:09:46.874Z,71.99
2019-04-25T12:12:17.196Z,71.33
2019-04-25T12:14:47.561Z,75.30
2019-04-25T12:17:17.087Z,74.53
2019-04-25T12:19:47.055Z,75.91
2019-04-25T12:22:16.567Z,75.99
2019-04-25T12:24:46.697Z,75.42
2019-04-25T12:27:15.774Z,76.42
2019-04-25T12:29:45.850Z,76.16
2019-04-25T12:32:15.356Z,77.87
2019-04-25T12:34:45.772Z,78.59
2019-04-25T12:37:14.867Z,78.96
2019-04-25T12:39:44.652Z,79.34
2019-04-25T12:42:14.445Z,78.28
2019-04-25T12:44:54.788Z,78.11
2019-04-25T12:47:25.165Z,79.28
2019-04-25T12:49:55.134Z,78.51
2019-04-25T12:52:25.396Z,77.35
2019-04-25T12:54:57.214Z,77.46
2019-04-25T12:57:26.527Z,77.63
2019-04-25T12:59:55.576Z,74.20
2019-04-25T13:02:24.595Z,75.14
2019-04-25T13:04:55.205Z,73.73
2019-04-25T13:07:24.376Z,74.19
2019-04-25T13:09:53.767Z,74.80
2019-04-25T13:12:23.419Z,73.76
2019-04-25T13:14:52.603Z,76.14
2019-04-25T13:17:21.626Z,73.00
2019-04-25T13:19:50.721Z,72.98
2019-04-25T13:22:19.919Z,72.21
2019-04-25T13:24:48.973Z,73.47
2019-04-25T13:27:39.968Z,73.69
2019-04-25T13:30:21.985Z,72.74
2019-04-25T13:33:08.963Z,73.78
2019-04-25T13:35:44.774Z,72.95
2019-04-25T13:38:13.799Z,72.18
2019-04-25T13:40:42.854Z,71.64
2019-04-25T13:43:12.525Z,72.40
2019-04-25T13:45:41.581Z,73.73
2019-04-25T13:48:11.354Z,72.21
2019-04-25T13:50:40.371Z,71.65
2019-04-25T13:53:09.559Z,74.06
2019-04-25T13:55:39.984Z,71.16
2019-04-25T13:58:11.181Z,70.49
2019-04-25T14:00:40.186Z,72.10
2019-04-25T14:03:09.197Z,71.42
2019-04-25T14:05:38.521Z,71.24
2019-04-25T14:08:07.587Z,70.78
2019-04-25T14:10:36.647Z,70.64
2019-04-25T14:13:06.322Z,71.10
2019-04-25T14:15:37.241Z,73.84
2019-04-25T14:18:20.264Z,71.48
2019-04-25T14:20:54.166Z,71.86
2019-04-25T14:23:24.767Z,71.65
2019-04-25T14:25:54.580Z,71.84
2019-04-25T14:28:25.523Z,71.70
2019-04-25T14:30:54.598Z,71.26
2019-04-25T14:33:25.400Z,71.82
2019-04-25T14:35:54.881Z,71.41
2019-04-25T14:38:25.337Z,72.43
2019-04-25T14:40:55.056Z,73.66
2019-04-25T14:43:25.038Z,75.52
2019-04-25T14:45:56.181Z,74.17
2019-04-25T14:48:25.173Z,72.95
2019-04-25T14:50:54.866Z,71.85
2019-04-25T14:53:24.293Z,72.50
2019-04-25T14:56:07.776Z,73.54
2019-04-25T14:58:38.164Z,74.11
2019-04-25T15:01:07.611Z,73.03
2019-04-25T15:03:37.015Z,71.40
2019-04-25T15:06:06.154Z,69.14
2019-04-25T15:08:35.565Z,69.16
2019-04-25T15:11:05.241Z,68.67
2019-04-25T15:13:35.231Z,70.09
2019-04-25T15:16:05.056Z,70.08
2019-04-25T15:18:45.825Z,71.47
2019-04-25T15:21:05.717Z,72.07
2019-04-25T15:23:35.825Z,73.58
2019-04-25T15:26:04.892Z,74.93
2019-04-25T15:28:33.918Z,75.59
2019-04-25T15:31:02.997Z,76.38
2019-04-25T15:33:33.127Z,77.15
2019-04-25T15:36:09.735Z,75.74
2019-04-25T15:39:15.965Z,74.04
2019-04-25T15:41:59.778Z,74.88
2019-04-25T15:44:50.733Z,75.37
2019-04-25T15:47:23.257Z,75.09
2019-04-25T15:49:52.283Z,74.40
2019-04-25T15:52:21.341Z,75.09
2019-04-25T15:54:50.341Z,77.11
2019-04-25T15:57:19.391Z,76.28
2019-04-25T15:59:48.383Z,74.95
2019-04-25T16:02:17.839Z,74.22
2019-04-25T16:04:46.863Z,74.40
2019-04-25T16:07:16.194Z,74.93
2019-04-25T16:09:45.191Z,75.26
2019-04-25T16:12:14.692Z,73.59
2019-04-25T16:14:44.127Z,73.73
2019-04-25T16:17:13.197Z,74.19
2019-04-25T16:19:42.205Z,73.63
2019-04-25T16:22:11.609Z,73.38
2019-04-25T16:24:41.032Z,71.93
2019-04-25T16:27:11.889Z,72.79
2019-04-25T16:29:40.919Z,73.02
2019-04-25T16:32:20.342Z,74.20
2019-04-25T16:34:44.292Z,75.97
2019-04-25T16:37:13.305Z,74.14
2019-04-25T16:39:43.211Z,75.07
2019-04-25T16:42:12.706Z,75.66
2019-04-25T16:44:42.033Z,74.61
2019-04-25T16:47:11.418Z,74.50
2019-04-25T16:49:40.451Z,74.38
2019-04-25T16:52:10.795Z,73.94
2019-04-25T16:54:40.471Z,73.83
2019-04-25T16:57:09.755Z,72.48
2019-04-25T16:59:38.951Z,71.30
2019-04-25T17:02:08.214Z,73.36
2019-04-25T17:04:37.606Z,74.49
2019-04-25T17:07:07.059Z,74.91
2019-04-25T17:09:36.523Z,75.44
2019-04-25T17:12:08.014Z,78.52
2019-04-25T17:14:51.037Z,78.74
2019-04-25T17:17:38.067Z,78.39
2019-04-25T17:20:20.023Z,78.39
2019-04-25T17:22:49.633Z,77.79
2019-04-25T17:25:19.311Z,77.17
2019-04-25T17:27:48.328Z,77.23
2019-04-25T17:30:18.303Z,76.91
2019-04-25T17:33:10.281Z,77.64
2019-04-25T17:35:57.155Z,78.33
2019-04-25T17:38:35.976Z,78.33
2019-04-25T17:41:05.255Z,75.77
2019-04-25T17:43:34.509Z,75.77
2019-04-25T17:46:05.927Z,75.79
2019-04-25T17:48:34.948Z,75.79
2019-04-25T17:51:04.334Z,77.35
2019-04-25T17:53:34.347Z,77.35
2019-04-25T17:56:03.735Z,76.94
2019-04-25T17:58:33.321Z,77.88
2019-04-25T18:01:03.644Z,78.40
2019-04-25T18:03:33.609Z,77.67
2019-04-25T18:06:02.809Z,77.67
2019-04-25T18:08:31.863Z,79.15
2019-04-25T18:11:00.886Z,79.92
2019-04-25T18:13:30.263Z,79.92
2019-04-25T18:16:06.207Z,80.10
2019-04-25T18:18:45.628Z,79.81
2019-04-25T18:21:14.716Z,80.35
2019-04-25T18:24:13.064Z,80.90
2019-04-25T18:26:47.578Z,80.90
2019-04-25T18:29:17.262Z,80.79
2019-04-25T18:31:46.382Z,82.87
2019-04-25T18:34:28.442Z,82.87
2019-04-25T18:37:05.728Z,82.91
2019-04-25T18:39:41.949Z,82.88
2019-04-25T18:42:37.855Z,83.30
2019-04-25T18:45:07.845Z,84.20
2019-04-25T18:47:37.010Z,84.05
2019-04-25T18:50:07.026Z,84.58
2019-04-25T18:53:00.993Z,84.51
2019-04-25T18:55:37.583Z,84.76
2019-04-25T18:58:12.792Z,84.60
2019-04-25T19:00:52.792Z,85.07
2019-04-25T19:03:38.162Z,85.86
2019-04-25T19:06:10.436Z,85.68
2019-04-25T19:08:39.634Z,85.45
2019-04-25T19:11:08.785Z,85.42
2019-04-25T19:13:38.797Z,85.20
2019-04-25T19:16:08.880Z,85.64
2019-04-25T19:18:38.829Z,85.88
2019-04-25T19:21:09.314Z,86.05
2019-04-25T19:23:39.379Z,86.49
2019-04-25T19:26:09.132Z,86.96
2019-04-25T19:28:38.488Z,87.23
2019-04-25T19:31:08.618Z,87.80
2019-04-25T19:33:37.863Z,88.03
2019-04-25T19:36:06.899Z,88.03
2019-04-25T19:38:36.271Z,88.33
2019-04-25T19:41:25.313Z,88.31
2019-04-25T19:44:04.535Z,88.63
2019-04-25T19:46:42.846Z,88.76
2019-04-25T19:49:12.304Z,87.83
2019-04-25T19:51:41.832Z,87.14
2019-04-25T19:54:10.879Z,86.51
2019-04-25T19:56:39.950Z,86.90
2019-04-25T19:59:09.498Z,87.53
2019-04-25T20:01:38.514Z,87.84
2019-04-25T20:04:13.929Z,88.39
2019-04-25T20:07:02.321Z,88.88
2019-04-25T20:09:51.142Z,88.39
2019-04-25T20:12:21.253Z,88.75
2019-04-25T20:14:51.292Z,89.12
2019-04-25T20:17:20.400Z,89.70
2019-04-25T20:19:49.760Z,89.70
2019-04-25T20:22:18.927Z,89.79
2019-04-25T20:24:48.348Z,89.59
2019-04-25T20:27:17.470Z,89.29
2019-04-25T20:29:46.934Z,89.08
2019-04-25T20:32:15.961Z,89.08
2019-04-25T20:34:46.973Z,89.18
2019-04-25T20:37:16.170Z,89.56
2019-04-25T20:39:46.025Z,89.28
2019-04-25T20:42:15.059Z,89.36
2019-04-25T20:44:44.098Z,89.67
2019-04-25T20:47:13.121Z,89.90
2019-04-25T20:49:42.137Z,89.92
2019-04-25T20:52:11.172Z,89.40
2019-04-25T20:54:40.488Z,89.82
2019-04-25T20:57:09.766Z,89.40
2019-04-25T20:59:39.094Z,89.62
2019-04-25T21:02:08.881Z,89.96
2019-04-25T21:04:42.210Z,89.73
2019-04-25T21:07:11.634Z,90.01
2019-04-25T21:09:40.743Z,89.65
2019-04-25T21:12:10.553Z,89.77
2019-04-25T21:15:03.728Z,90.06
2019-04-25T21:17:54.926Z,89.95
2019-04-25T21:20:23.958Z,90.29
2019-04-25T21:22:53.824Z,90.95
2019-04-25T21:25:23.172Z,90.93
2019-04-25T21:27:52.604Z,90.89
2019-04-25T21:30:21.664Z,90.87
2019-04-25T21:32:53.399Z,90.52
2019-04-25T21:35:25.652Z,90.09
2019-04-25T21:37:55.524Z,88.98
2019-04-25T21:40:37.491Z,88.75
2019-04-25T21:43:10.818Z,88.56
2019-04-25T21:45:40.542Z,88.37
2019-04-25T21:48:10.235Z,88.41
2019-04-25T21:50:39.881Z,89.34
2019-04-25T21:53:09.591Z,89.28
2019-04-25T21:55:38.922Z,89.41
2019-04-25T21:58:08.126Z,89.91
2019-04-25T22:00:56.427Z,90.10
2019-04-25T22:03:26.146Z,90.56
2019-04-25T22:05:56.726Z,90.48
2019-04-25T22:08:26.366Z,89.68
2019-04-25T22:10:57.235Z,88.94
2019-04-25T22:13:26.320Z,89.34
2019-04-25T22:15:57.172Z,89.96
2019-04-25T22:18:26.942Z,89.82
2019-04-25T22:20:56.895Z,89.29
2019-04-25T22:23:25.963Z,90.00
2019-04-25T22:25:56.287Z,90.03
2019-04-25T22:28:25.732Z,90.28
2019-04-25T22:30:59.098Z,91.09
2019-04-25T22:33:47.668Z,90.85
2019-04-25T22:36:19.296Z,90.47
2019-04-25T22:39:07.840Z,90.03
2019-04-25T22:41:38.457Z,90.39
2019-04-25T22:44:08.871Z,89.80
2019-04-25T22:46:38.198Z,89.59
2019-04-25T22:49:07.682Z,90.18
2019-04-25T22:51:37.077Z,89.27
2019-04-25T22:54:07.399Z,89.97
2019-04-25T22:56:36.672Z,90.25
2019-04-25T22:59:06.868Z,90.66
2019-04-25T23:01:58.118Z,90.48
2019-04-25T23:04:44.912Z,90.29
2019-04-25T23:07:14.801Z,90.51
2019-04-25T23:09:44.648Z,90.63
2019-04-25T23:12:13.852Z,90.99
2019-04-25T23:14:43.422Z,91.34
2019-04-25T23:17:13.381Z,91.71
2019-04-25T23:19:42.944Z,91.76
2019-04-25T23:22:11.952Z,91.64
2019-04-25T23:24:46.107Z,91.94
2019-04-25T23:27:31.540Z,92.00
2019-04-25T23:30:00.563Z,92.53
2019-04-25T23:32:29.846Z,92.50
2019-04-25T23:34:58.858Z,92.59
2019-04-25T23:37:27.937Z,92.19
2019-04-25T23:39:57.055Z,91.43
2019-04-25T23:42:26.623Z,91.20
2019-04-25T23:44:56.928Z,90.36
2019-04-25T23:47:26.438Z,89.79
2019-04-25T23:49:55.690Z,89.07
2019-04-25T23:52:25.257Z,88.92
2019-04-25T23:54:54.418Z,87.90
2019-04-25T23:57:23.739Z,88.39
2019-04-25T23:59:53.076Z,89.21
